Minot Air Force Base
KMIB : now visible

Airfield :











YOU CAN JOIN US ON...

 
LOGIN :

Register | Disclaimer

   EN    FR    IT 

 









Legend :    VFR   Marginal VFR   IFR   Intensive IFR   Very Intensive IFR
Visi :
Ceiling :
>= 8 km
>= 3000ft
5 to 8 km
1000 to 3000 ft
1500m to 5 km
500 to 1000 ft
800 to 1500m
200 to 500 ft
< 800m
< 200 ft
Symbols :   Thunderstorms  Fog  Heavy snow  Heavy precipitations  Wind > 20 kt






- Airport Elevation : 1667 ft


KMIB - Minot Air Force Base

CURRENT METAR :
  • 282255Z 13012KT 10SM CLR M08/M16 A2997 RMK AO2A SLP193 T10771156 $

EXPIRED METARs :
  • 282155Z 12010KT 10SM FEW030 M08/M15 A2997 RMK AO2A SLP193 T10781155 $
  • 282055Z 14008G16KT 10SM FEW070 M08/M16 A2998 RMK AO2A SLP196 T10851157 57020 $
  • 281955Z 16009KT 10SM FEW070 SCT200 M09/M17 A3000 RMK AO2A SLP203 T10941168 $
  • 281855Z 14006G14KT 10SM SCT130 M11/M18 A3002 RMK AO2A SLP212 T11091180 $

TAF TAF KMIB
Valid from the 28 at 17:00 until the 29 at 23:00 UTC


281700Z 2817/2923 VRB06KT 9999 FEW035 SCT130 QNH2994INS
BECMG 2820/2821 18009KT 9999 BKN035 QNH2988INS
BECMG 2901/2902 14012G18KT 9999 SCT035 OVC050 620502 QNH2983INS
BECMG 2904/2905 16010G15KT 9999 SCT010 OVC050 620502 510003 QNH2968INS
BECMG 2911/2912 16010G15KT 9999 FEW050 510003 QNH2964INS
BECMG 2915/2916 21010G15KT 9999 SKC QNH2953INS TX07/2917Z TNM14/2817Z
KZMP FIR / North America



MET'MAP, your aeronautical weather chart ! - Copyright ORBIFLY December 2007 - Disclaimer

ORBIFLY MET'MAP TEAM :

Programming & Development : Alexandra Zaïnal
Original concept : Baudouin d'Aumeries
Technical & hardware support : Manuel Goepfert
Assistance : Marc-Olivier Méhu




SOURCES & CREDITS :

   NOAA       Earth
Advisory